Time;durP1;ratioP1;P1;durP2;ratioP2;P2;SDS_P1;SDS_P2;PMS_P1;PMS_P2;Temp;Humidity;BMP_temperature;BMP_pressure;BME280_temperature;BME280_humidity;BME280_pressure;Samples;Min_cycle;Max_cycle;Signal;HPM_P1;HPM_P2
2023/08/21 00:00:13;;;;;;;6.00;5.40;;;;;;;24.97;100.00;98572.16;5056302;28;20225;-76
2023/08/21 00:02:40;;;;;;;6.82;5.47;;;;;;;24.85;100.00;98580.81;5057023;28;20209;-76
2023/08/21 00:05:07;;;;;;;7.93;5.57;;;;;;;24.80;100.00;98580.91;5056922;28;20205;-76
2023/08/21 00:07:33;;;;;;;6.28;5.68;;;;;;;24.75;100.00;98586.41;5056854;28;20204;-76
2023/08/21 00:09:59;;;;;;;5.75;5.15;;;;;;;24.74;100.00;98589.44;5056503;28;20704;-76
2023/08/21 00:12:26;;;;;;;6.85;5.47;;;;;;;24.93;100.00;98590.19;5057532;28;20197;-80
2023/08/21 00:14:52;;;;;;;7.50;5.50;;;;;;;24.76;100.00;98589.94;5059460;28;20197;-80
2023/08/21 00:17:19;;;;;;;6.57;5.88;;;;;;;24.77;100.00;98581.47;5059403;28;20209;-79
2023/08/21 00:19:45;;;;;;;6.03;5.53;;;;;;;24.78;100.00;98585.81;5059883;28;20634;-80
2023/08/21 00:22:11;;;;;;;5.45;5.05;;;;;;;24.72;100.00;98583.47;5060171;28;20213;-80
2023/08/21 00:24:38;;;;;;;6.85;5.40;;;;;;;24.71;100.00;98582.69;5059092;28;20210;-80
2023/08/21 00:27:04;;;;;;;6.00;5.40;;;;;;;24.66;100.00;98577.31;5059069;28;20211;-80
2023/08/21 00:29:30;;;;;;;6.05;4.95;;;;;;;24.71;100.00;98582.69;5059317;28;20283;-79
2023/08/21 00:31:57;;;;;;;6.30;4.88;;;;;;;24.62;100.00;98581.72;5060373;28;20211;-79
2023/08/21 00:34:23;;;;;;;5.53;4.97;;;;;;;24.86;100.00;98582.41;5059731;28;20204;-79
2023/08/21 00:36:50;;;;;;;5.65;5.15;;;;;;;25.02;100.00;98578.31;5059570;28;20211;-79
2023/08/21 00:39:16;;;;;;;4.97;4.55;;;;;;;25.00;100.00;98574.28;5059158;28;20221;-80
2023/08/21 00:41:43;;;;;;;7.28;5.20;;;;;;;24.88;100.00;98572.03;5058604;28;20216;-80
2023/08/21 00:44:09;;;;;;;8.85;5.60;;;;;;;24.82;100.00;98572.41;5060410;28;20213;-80
2023/08/21 00:46:36;;;;;;;5.38;4.93;;;;;;;24.94;100.00;98570.03;5058391;28;20686;-80
2023/08/21 00:49:03;;;;;;;6.57;5.35;;;;;;;24.91;100.00;98570.63;5059319;28;20227;-80
2023/08/21 00:51:29;;;;;;;5.85;5.35;;;;;;;24.84;100.00;98559.34;5041702;28;20205;-80
2023/08/21 00:53:56;;;;;;;8.35;5.18;;;;;;;24.97;100.00;98558.56;5059811;28;20215;-80
2023/08/21 00:56:22;;;;;;;5.70;5.10;;;;;;;24.92;100.00;98566.81;5058645;28;20232;-80
2023/08/21 00:58:49;;;;;;;5.63;4.72;;;;;;;24.81;100.00;98559.91;5058644;28;20222;-80
2023/08/21 01:01:18;;;;;;;5.97;5.18;;;;;;;24.84;100.00;98562.06;5057886;28;20567;-80
2023/08/21 01:03:45;;;;;;;5.43;4.93;;;;;;;24.82;100.00;98558.81;5052679;28;20206;-80
2023/08/21 01:06:12;;;;;;;6.00;5.05;;;;;;;24.84;100.00;98556.63;5047108;28;20201;-79
2023/08/21 01:08:54;;;;;;;5.72;5.22;;;;;;;24.72;100.00;98559.00;5058723;28;20237;-80
2023/08/21 01:11:34;;;;;;;5.35;4.80;;;;;;;24.64;100.00;98559.66;5057634;28;20193;-80
2023/08/21 01:14:29;;;;;;;6.15;5.20;;;;;;;24.58;100.00;98560.81;5059179;28;20189;-79
2023/08/21 01:17:04;;;;;;;5.57;5.07;;;;;;;24.48;100.00;98561.81;5051415;28;20194;-80
2023/08/21 01:19:33;;;;;;;7.68;5.38;;;;;;;24.39;100.00;98557.34;5038992;28;20225;-79
2023/08/21 01:22:00;;;;;;;7.85;4.95;;;;;;;24.30;100.00;98556.38;5037392;28;20206;-80
2023/08/21 01:24:27;;;;;;;8.70;5.47;;;;;;;24.26;100.00;98566.22;5039124;28;20210;-80
2023/08/21 01:26:53;;;;;;;6.47;4.85;;;;;;;24.22;100.00;98562.47;5053264;28;20656;-79
2023/08/21 01:29:20;;;;;;;7.15;5.43;;;;;;;24.19;100.00;98563.88;5057760;28;20595;-80
2023/08/21 01:31:52;;;;;;;7.13;5.30;;;;;;;24.09;100.00;98566.75;5058913;28;20208;-79
2023/08/21 01:34:19;;;;;;;6.95;5.30;;;;;;;24.05;100.00;98567.59;5057805;28;20193;-80
2023/08/21 01:36:46;;;;;;;6.15;5.15;;;;;;;23.97;100.00;98571.00;5056669;28;20205;-80
2023/08/21 01:39:13;;;;;;;5.80;5.30;;;;;;;23.95;100.00;98574.00;5058555;28;20233;-80
2023/08/21 01:41:39;;;;;;;5.78;4.97;;;;;;;23.86;100.00;98567.59;5057328;28;20196;-79
2023/08/21 01:44:06;;;;;;;6.45;5.90;;;;;;;23.81;100.00;98562.22;5057756;28;20212;-79
2023/08/21 01:46:32;;;;;;;5.47;5.00;;;;;;;23.82;100.00;98561.09;5057328;28;20205;-80
2023/08/21 01:48:58;;;;;;;8.20;5.68;;;;;;;23.83;100.00;98556.50;5057724;28;20312;-80
2023/08/21 01:51:25;;;;;;;5.78;5.30;;;;;;;23.75;100.00;98557.16;5057478;28;20215;-80
2023/08/21 01:53:51;;;;;;;6.13;5.53;;;;;;;23.72;100.00;98560.44;5056897;28;20211;-80
2023/08/21 01:56:17;;;;;;;7.10;5.43;;;;;;;23.65;100.00;98563.50;5057177;28;20209;-80
2023/08/21 01:58:44;;;;;;;5.80;5.28;;;;;;;23.71;100.00;98561.53;5056730;28;20726;-80
2023/08/21 02:01:10;;;;;;;5.65;5.25;;;;;;;23.61;100.00;98558.94;5057819;28;20209;-80
2023/08/21 02:03:36;;;;;;;7.53;6.28;;;;;;;23.63;100.00;98556.75;5056474;28;20206;-80
2023/08/21 02:06:03;;;;;;;8.32;6.50;;;;;;;23.62;100.00;98563.28;5058429;28;20205;-80
2023/08/21 02:08:33;;;;;;;7.30;6.40;;;;;;;23.59;100.00;98561.13;5057612;28;20225;-80
2023/08/21 02:10:59;;;;;;;6.78;6.18;;;;;;;23.54;100.00;98553.06;5058058;28;20213;-79
2023/08/21 02:13:26;;;;;;;7.88;6.65;;;;;;;23.51;100.00;98550.94;5057571;28;20202;-76
2023/08/21 02:15:52;;;;;;;7.43;6.55;;;;;;;23.54;100.00;98553.06;5054590;28;20261;-76
2023/08/21 02:18:19;;;;;;;7.63;6.80;;;;;;;23.46;100.00;98554.50;5054464;28;20203;-76
2023/08/21 02:20:45;;;;;;;7.63;6.63;;;;;;;23.44;100.00;98550.47;5053947;28;20207;-76
2023/08/21 02:23:11;;;;;;;7.18;6.50;;;;;;;23.44;100.00;98553.19;5053977;28;20561;-76
2023/08/21 02:25:38;;;;;;;8.45;7.10;;;;;;;23.41;100.00;98548.31;5054366;28;20209;-76
2023/08/21 02:28:04;;;;;;;7.30;6.70;;;;;;;23.39;100.00;98548.63;5053921;28;20572;-76
2023/08/21 02:30:31;;;;;;;7.70;6.95;;;;;;;23.40;100.00;98552.13;5054206;28;20236;-76
2023/08/21 02:32:57;;;;;;;7.28;6.57;;;;;;;23.38;100.00;98552.44;5054215;28;20205;-76
2023/08/21 02:35:24;;;;;;;7.75;7.13;;;;;;;23.38;100.00;98559.78;5054195;28;20208;-76
2023/08/21 02:37:50;;;;;;;7.78;7.07;;;;;;;23.30;100.00;98557.69;5054146;28;20205;-76
2023/08/21 02:40:17;;;;;;;7.63;7.03;;;;;;;23.26;100.00;98553.94;5053628;28;20239;-76
2023/08/21 02:42:43;;;;;;;9.27;7.60;;;;;;;23.17;100.00;98558.34;5054036;28;20211;-76
2023/08/21 02:45:10;;;;;;;8.30;7.40;;;;;;;23.21;100.00;98564.84;5053908;28;20205;-76
2023/08/21 02:47:38;;;;;;;9.65;8.00;;;;;;;23.25;100.00;98563.19;5053973;28;20296;-76
2023/08/21 02:50:09;;;;;;;7.88;6.93;;;;;;;23.20;100.00;98563.22;5053756;28;20244;-76
2023/08/21 02:52:36;;;;;;;8.00;7.05;;;;;;;23.25;100.00;98563.97;5053949;28;20193;-76
2023/08/21 02:55:03;;;;;;;7.55;6.82;;;;;;;23.19;100.00;98564.31;5053781;28;20205;-76
2023/08/21 02:57:30;;;;;;;8.35;7.40;;;;;;;23.15;100.00;98558.63;5053818;28;20208;-76
2023/08/21 02:59:56;;;;;;;8.65;7.57;;;;;;;23.20;100.00;98564.03;5053232;28;20229;-76
2023/08/21 03:02:23;;;;;;;7.82;7.05;;;;;;;23.18;100.00;98559.94;5053644;28;20231;-76
2023/08/21 03:04:51;;;;;;;8.35;7.40;;;;;;;23.14;100.00;98556.19;5053591;28;20215;-76
2023/08/21 03:07:18;;;;;;;6.72;6.13;;;;;;;23.15;100.00;98560.53;5053566;28;20214;-76
2023/08/21 03:09:46;;;;;;;6.13;5.63;;;;;;;23.05;100.00;98560.63;5053177;28;20252;-76
2023/08/21 03:12:13;;;;;;;6.13;5.65;;;;;;;22.97;100.00;98563.97;5053659;28;20334;-76
2023/08/21 03:14:39;;;;;;;6.72;6.18;;;;;;;22.97;100.00;98563.97;5053419;28;20201;-76
2023/08/21 03:17:05;;;;;;;7.80;6.40;;;;;;;22.97;100.00;98566.69;5053463;28;20288;-76
2023/08/21 03:19:32;;;;;;;6.50;5.90;;;;;;;22.92;100.00;98569.47;5053317;28;20396;-76
2023/08/21 03:21:58;;;;;;;7.75;5.88;;;;;;;22.83;100.00;98566.53;5053493;28;20575;-76
2023/08/21 03:24:24;;;;;;;6.82;6.25;;;;;;;22.68;100.00;98565.84;5053139;28;20664;-76
2023/08/21 03:26:51;;;;;;;7.45;6.25;;;;;;;22.80;100.00;98569.03;5053448;28;20288;-76
2023/08/21 03:29:17;;;;;;;7.03;6.35;;;;;;;22.67;100.00;98578.63;5052947;28;20566;-76
2023/08/21 03:31:43;;;;;;;8.30;6.57;;;;;;;22.68;100.00;98561.25;5053006;28;20564;-76
2023/08/21 03:34:10;;;;;;;8.15;6.47;;;;;;;22.65;100.00;98566.44;5056428;28;20211;-76
2023/08/21 03:36:38;;;;;;;7.90;6.13;;;;;;;22.57;100.00;98567.84;5057329;28;20201;-76
2023/08/21 03:39:05;;;;;;;6.75;6.10;;;;;;;22.53;100.00;98572.25;5057108;28;20225;-76
2023/08/21 03:41:32;;;;;;;9.13;6.22;;;;;;;22.61;100.00;98563.47;5057374;28;20205;-76
2023/08/21 03:43:58;;;;;;;6.65;5.97;;;;;;;22.58;100.00;98563.25;5057353;28;20205;-76
2023/08/21 03:46:24;;;;;;;7.22;6.13;;;;;;;22.50;100.00;98564.66;5057245;28;20215;-76
2023/08/21 03:48:51;;;;;;;7.63;6.60;;;;;;;22.59;100.00;98562.13;5057114;28;20232;-76
2023/08/21 03:51:17;;;;;;;6.43;5.82;;;;;;;22.58;100.00;98574.91;5056905;28;20648;-76
2023/08/21 03:53:44;;;;;;;7.28;6.57;;;;;;;22.54;100.00;98573.03;5057150;28;20211;-76
2023/08/21 03:56:10;;;;;;;6.97;6.38;;;;;;;22.40;100.00;98582.84;5057017;28;20211;-76
2023/08/21 03:58:36;;;;;;;7.15;6.45;;;;;;;22.38;100.00;98583.13;5057032;28;20228;-76
2023/08/21 04:01:03;;;;;;;7.00;6.22;;;;;;;22.45;100.00;98580.09;5056994;28;20212;-76
2023/08/21 04:03:29;;;;;;;6.65;6.00;;;;;;;22.43;100.00;98585.00;5056335;28;20640;-76
2023/08/21 04:05:56;;;;;;;7.82;6.00;;;;;;;22.45;100.00;98580.97;5055994;28;20226;-80
2023/08/21 04:08:23;;;;;;;6.90;6.20;;;;;;;22.39;100.00;98587.47;5058035;28;20208;-80
2023/08/21 04:10:52;;;;;;;6.82;6.10;;;;;;;22.37;100.00;98594.25;5058912;28;20704;-79
2023/08/21 04:13:18;;;;;;;7.40;6.25;;;;;;;22.45;100.00;98596.38;5059476;28;20205;-80
2023/08/21 04:15:50;;;;;;;7.07;6.13;;;;;;;22.38;100.00;98601.31;5059538;28;20212;-80
2023/08/21 04:18:17;;;;;;;7.85;6.38;;;;;;;22.37;100.00;98596.97;5058620;28;20216;-80
2023/08/21 04:20:43;;;;;;;9.00;6.03;;;;;;;22.36;100.00;98608.88;5059502;28;20203;-80
2023/08/21 04:23:10;;;;;;;6.75;6.15;;;;;;;22.38;100.00;98607.53;5059619;28;20211;-80
2023/08/21 04:25:36;;;;;;;10.10;6.43;;;;;;;22.46;100.00;98608.84;5058336;28;20225;-80
2023/08/21 04:28:02;;;;;;;7.18;6.00;;;;;;;22.44;100.00;98611.00;5041398;28;20570;-80
2023/08/21 04:30:29;;;;;;;7.38;6.68;;;;;;;22.44;100.00;98609.13;5042724;28;20221;-80
2023/08/21 04:32:55;;;;;;;6.72;6.10;;;;;;;22.38;100.00;98612.16;5058318;28;20197;-79
2023/08/21 04:35:21;;;;;;;7.15;6.55;;;;;;;22.36;100.00;98607.00;5056887;28;20200;-80
2023/08/21 04:37:49;;;;;;;7.45;6.75;;;;;;;22.32;100.00;98613.25;5056819;28;20220;-80
2023/08/21 04:40:17;;;;;;;6.82;6.13;;;;;;;22.35;100.00;98613.53;5054422;28;20229;-80
2023/08/21 04:42:43;;;;;;;8.23;6.50;;;;;;;22.30;100.00;98604.59;5057173;28;20205;-79
2023/08/21 04:45:10;;;;;;;7.55;6.70;;;;;;;22.32;100.00;98608.66;5056144;28;20709;-80
2023/08/21 04:47:36;;;;;;;7.00;6.25;;;;;;;22.34;100.00;98611.88;5057980;28;20202;-80
2023/08/21 04:50:03;;;;;;;7.20;6.50;;;;;;;22.21;100.00;98600.88;5057104;28;20590;-80
2023/08/21 04:52:29;;;;;;;6.35;5.85;;;;;;;22.29;100.00;98611.91;5057218;28;20581;-80
2023/08/21 04:54:56;;;;;;;9.27;6.53;;;;;;;22.35;100.00;98596.44;5057929;28;20285;-79
2023/08/21 04:57:22;;;;;;;6.70;6.10;;;;;;;22.40;100.00;98609.94;5044964;28;20228;-79
2023/08/21 04:59:49;;;;;;;6.80;6.20;;;;;;;22.45;100.00;98607.22;5047719;28;20663;-79
2023/08/21 05:02:15;;;;;;;8.25;6.03;;;;;;;22.43;100.00;98610.19;5057541;28;20198;-80
2023/08/21 05:04:42;;;;;;;7.13;6.43;;;;;;;22.45;100.00;98612.63;5059521;28;20673;-80
2023/08/21 05:07:08;;;;;;;10.98;6.65;;;;;;;22.50;100.00;98609.91;5057305;28;20193;-80
2023/08/21 05:09:34;;;;;;;8.60;6.47;;;;;;;22.57;100.00;98616.63;5059188;28;20221;-79
2023/08/21 05:12:01;;;;;;;12.20;6.70;;;;;;;22.68;100.00;98620.06;5058937;28;20205;-80
2023/08/21 05:14:27;;;;;;;9.80;6.85;;;;;;;22.71;100.00;98624.94;5058551;28;20207;-80
2023/08/21 05:16:54;;;;;;;7.22;6.47;;;;;;;22.74;100.00;98617.03;5058282;28;20205;-79
2023/08/21 05:19:21;;;;;;;9.10;6.40;;;;;;;22.76;100.00;98620.28;5058711;28;20222;-79
2023/08/21 05:21:47;;;;;;;8.52;6.65;;;;;;;22.83;100.00;98620.75;5058411;28;20212;-80
2023/08/21 05:24:13;;;;;;;7.10;6.32;;;;;;;22.85;100.00;98625.91;5059822;28;20218;-80
2023/08/21 05:26:40;;;;;;;7.15;6.55;;;;;;;22.88;100.00;98617.22;5058590;28;20198;-80
2023/08/21 05:29:06;;;;;;;9.27;7.00;;;;;;;22.95;100.00;98625.81;5058628;28;20229;-79
2023/08/21 05:31:33;;;;;;;7.13;6.50;;;;;;;22.99;100.00;98624.97;5059014;28;20694;-80
2023/08/21 05:33:59;;;;;;;1255.75;165.98;;;;;;;23.10;100.00;98622.97;5055251;28;20262;-76
2023/08/21 05:36:25;;;;;;;328.50;43.50;;;;;;;23.18;100.00;98628.59;5054778;28;20201;-76
2023/08/21 05:38:52;;;;;;;178.07;26.52;;;;;;;23.27;100.00;98631.50;5054519;28;20583;-76
2023/08/21 05:41:19;;;;;;;983.83;126.97;;;;;;;23.34;100.00;98632.00;5055157;28;20190;-76
2023/08/21 05:43:45;;;;;;;1037.47;129.43;;;;;;;23.37;100.00;98628.69;5054350;28;20251;-76
2023/08/21 05:46:12;;;;;;;1999.90;439.77;;;;;;;23.46;100.00;98632.41;5052415;28;20209;-76
2023/08/21 05:48:39;;;;;;;1009.55;132.07;;;;;;;23.52;100.00;98633.97;5044280;28;20590;-75
2023/08/21 05:51:05;;;;;;;1326.40;170.32;;;;;;;23.57;100.00;98634.72;5054711;28;20271;-76
2023/08/21 05:53:31;;;;;;;61.33;14.07;;;;;;;23.64;100.00;98637.09;5054587;28;20205;-76
2023/08/21 05:55:58;;;;;;;32.33;9.93;;;;;;;23.71;100.00;98638.38;5053476;28;20673;-76
2023/08/21 05:58:29;;;;;;;30.15;8.93;;;;;;;23.74;100.00;98637.78;5057147;28;20288;-80
2023/08/21 06:00:55;;;;;;;9.38;7.47;;;;;;;23.93;100.00;98640.59;5058429;28;20276;-79
2023/08/21 06:03:21;;;;;;;9.10;7.38;;;;;;;24.06;100.00;98642.59;5058076;28;20631;-79
2023/08/21 06:05:48;;;;;;;13.82;8.38;;;;;;;24.10;100.00;98643.63;5057740;28;20231;-80
2023/08/21 06:08:14;;;;;;;10.48;6.70;;;;;;;24.03;100.00;98643.16;5057964;28;20200;-80
2023/08/21 06:10:41;;;;;;;13.27;7.88;;;;;;;24.06;100.00;98639.88;5057666;28;20708;-79
2023/08/21 06:13:08;;;;;;;8.30;7.22;;;;;;;24.19;100.00;98645.41;5059136;28;20213;-80
2023/08/21 06:15:34;;;;;;;8.63;7.57;;;;;;;24.22;100.00;98646.72;5057559;28;20287;-80
2023/08/21 06:18:00;;;;;;;7.93;7.13;;;;;;;24.26;100.00;98645.03;5058145;28;20201;-80
2023/08/21 06:20:27;;;;;;;8.48;6.72;;;;;;;24.35;100.00;98648.72;5058073;28;20213;-80
2023/08/21 06:22:53;;;;;;;13.00;7.13;;;;;;;24.40;100.00;98638.59;5057957;28;20279;-79
2023/08/21 06:25:20;;;;;;;8.38;6.50;;;;;;;24.49;100.00;98649.59;5056983;28;20205;-79
2023/08/21 06:27:47;;;;;;;7.70;6.60;;;;;;;24.43;100.00;98656.22;5056774;28;20260;-79
2023/08/21 06:30:16;;;;;;;9.15;5.82;;;;;;;24.47;100.00;98649.09;5057890;28;20231;-79
2023/08/21 06:32:43;;;;;;;8.90;6.18;;;;;;;24.55;100.00;98649.22;5056796;28;20340;-79
2023/08/21 06:35:09;;;;;;;7.25;6.25;;;;;;;24.69;100.00;98657.50;5057262;28;20201;-79
2023/08/21 06:37:36;;;;;;;6.57;5.93;;;;;;;24.92;100.00;98653.88;5054818;28;20211;-79
2023/08/21 06:40:02;;;;;;;7.82;5.78;;;;;;;25.19;100.00;98653.97;5054380;28;20221;-79
2023/08/21 06:42:29;;;;;;;6.63;5.90;;;;;;;24.74;100.00;98652.78;5055525;28;20229;-78
2023/08/21 06:44:56;;;;;;;6.47;5.82;;;;;;;24.74;100.00;98652.78;5054932;28;20201;-79
2023/08/21 06:47:22;;;;;;;6.75;6.07;;;;;;;24.87;100.00;98659.41;5054785;28;20208;-79
2023/08/21 06:49:49;;;;;;;8.57;6.80;;;;;;;24.86;100.00;98661.28;5054456;28;20236;-79
2023/08/21 06:52:15;;;;;;;70.35;13.73;;;;;;;24.89;100.00;98662.63;5055144;28;20201;-79
2023/08/21 06:54:41;;;;;;;9.95;6.93;;;;;;;24.99;100.00;98663.25;5054912;28;20220;-79
2023/08/21 06:57:08;;;;;;;11.30;7.10;;;;;;;25.02;100.00;98664.56;5055948;28;20205;-79
2023/08/21 06:59:35;;;;;;;10.18;6.75;;;;;;;25.18;100.00;98657.75;5056111;28;20224;-79
2023/08/21 07:02:03;;;;;;;8.18;6.68;;;;;;;25.22;100.00;98666.94;5056758;28;20260;-79
2023/08/21 07:04:29;;;;;;;11.00;6.38;;;;;;;25.16;100.00;98662.69;5055837;28;20263;-79
2023/08/21 07:06:56;;;;;;;11.68;5.72;;;;;;;25.14;100.00;98668.44;5056521;28;20232;-79
2023/08/21 07:09:22;;;;;;;8.82;5.68;;;;;;;25.18;100.00;98668.66;5055854;28;20217;-79
2023/08/21 07:11:48;;;;;;;6.40;5.68;;;;;;;25.41;100.00;98662.28;5056434;28;20203;-79
2023/08/21 07:14:16;;;;;;;8.13;5.63;;;;;;;25.56;100.00;98668.25;5056149;28;20213;-79
2023/08/21 07:16:43;;;;;;;6.03;5.38;;;;;;;25.56;100.00;98670.19;5055571;28;20565;-79
2023/08/21 07:19:10;;;;;;;6.53;5.60;;;;;;;25.67;100.00;98671.59;5056207;28;20231;-80
2023/08/21 07:21:38;;;;;;;7.22;5.72;;;;;;;25.76;100.00;98658.91;5055783;28;20201;-79
2023/08/21 07:24:05;;;;;;;6.05;5.35;;;;;;;25.78;100.00;98667.59;5055935;28;20576;-80
2023/08/21 07:26:31;;;;;;;28.00;9.15;;;;;;;25.76;100.00;98665.16;5056153;28;20201;-79
2023/08/21 07:28:58;;;;;;;8.48;5.80;;;;;;;25.78;100.00;98673.81;5056705;28;20224;-79
2023/08/21 07:31:24;;;;;;;9.23;5.88;;;;;;;25.85;100.00;98674.25;5055115;28;20224;-79
2023/08/21 07:33:51;;;;;;;7.82;6.45;;;;;;;26.06;100.00;98664.56;5057589;28;20205;-79
2023/08/21 07:36:17;;;;;;;6.45;5.78;;;;;;;26.09;100.00;98677.59;5055594;28;20312;-79
2023/08/21 07:38:44;;;;;;;608.72;78.47;;;;;;;25.99;100.00;98674.25;5055451;28;20635;-79
2023/08/21 07:41:12;;;;;;;29.20;8.48;;;;;;;25.98;100.00;98680.81;5055969;28;20186;-79
2023/08/21 07:43:42;;;;;;;7.72;6.00;;;;;;;26.24;100.00;98676.47;5055649;28;20664;-79
2023/08/21 07:46:13;;;;;;;11.23;6.72;;;;;;;26.39;100.00;98679.69;5055849;28;20209;-79
2023/08/21 07:48:39;;;;;;;8.95;5.70;;;;;;;26.62;100.00;98678.66;5056307;28;20253;-79
2023/08/21 07:51:06;;;;;;;9.02;6.40;;;;;;;26.52;100.00;98678.03;5056310;28;20221;-79
2023/08/21 07:53:34;;;;;;;11.45;6.50;;;;;;;26.76;100.00;98678.59;5056058;28;20202;-79
2023/08/21 07:56:01;;;;;;;8.90;6.20;;;;;;;27.01;100.00;98678.00;5055476;28;20209;-79
2023/08/21 07:58:28;;;;;;;8.55;5.82;;;;;;;26.82;99.92;98682.84;5055422;28;20205;-79
2023/08/21 08:00:55;;;;;;;7.13;6.22;;;;;;;26.94;100.00;98686.63;5055841;28;20209;-79
2023/08/21 08:03:21;;;;;;;8.30;5.93;;;;;;;27.08;100.00;98676.44;5055294;28;20213;-79
2023/08/21 08:05:47;;;;;;;8.18;6.80;;;;;;;27.01;99.95;98680.75;5055377;28;20209;-79
2023/08/21 08:08:14;;;;;;;8.07;6.20;;;;;;;27.10;100.00;98676.16;5055720;28;20553;-79
2023/08/21 08:10:41;;;;;;;8.05;6.20;;;;;;;27.20;100.00;98670.47;5055308;28;20221;-79
2023/08/21 08:13:08;;;;;;;11.20;6.63;;;;;;;27.30;100.00;98677.59;5038196;28;20202;-76
2023/08/21 08:15:35;;;;;;;10.30;7.18;;;;;;;27.16;98.77;98677.63;5032310;28;20214;-76
2023/08/21 08:18:03;;;;;;;7.20;6.50;;;;;;;27.30;100.00;98681.13;5032709;28;20213;-76
2023/08/21 08:20:30;;;;;;;7.60;6.25;;;;;;;27.55;97.30;98685.13;5034490;28;20213;-76
2023/08/21 08:22:56;;;;;;;7.07;6.18;;;;;;;27.39;100.00;98681.19;5036911;28;20205;-79
2023/08/21 08:25:23;;;;;;;6.78;6.07;;;;;;;27.54;98.46;98688.97;5038647;28;20206;-79
2023/08/21 08:27:50;;;;;;;8.13;6.20;;;;;;;27.76;96.74;98681.53;5038749;28;20210;-79
2023/08/21 08:30:16;;;;;;;7.00;6.20;;;;;;;27.70;95.08;98690.16;5039180;28;20221;-79
2023/08/21 08:32:46;;;;;;;7.57;6.00;;;;;;;27.64;96.43;98684.06;5038483;28;20665;-79
2023/08/21 08:35:16;;;;;;;7.07;6.45;;;;;;;27.86;95.48;98686.75;5039000;28;20284;-79
2023/08/21 08:37:43;;;;;;;9.15;6.57;;;;;;;27.82;95.22;98684.97;5040180;28;20217;-79
2023/08/21 08:40:13;;;;;;;10.35;5.97;;;;;;;27.81;98.05;98678.69;5058878;28;20224;-80
2023/08/21 08:42:40;;;;;;;8.02;6.00;;;;;;;27.95;96.45;98679.41;5059687;28;20192;-80
2023/08/21 08:45:07;;;;;;;6.72;6.03;;;;;;;27.84;95.49;98678.06;5059451;28;20197;-79
2023/08/21 08:47:34;;;;;;;7.00;6.40;;;;;;;27.47;96.13;98681.22;5059197;28;20205;-79
2023/08/21 08:50:06;;;;;;;6.28;5.75;;;;;;;27.58;100.00;98681.78;5058553;28;20708;-79
2023/08/21 08:52:36;;;;;;;6.90;6.00;;;;;;;27.75;98.07;98679.91;5057468;28;20641;-79
2023/08/21 08:55:03;;;;;;;6.43;5.82;;;;;;;27.82;98.19;98683.03;5044197;28;20199;-79
2023/08/21 08:57:30;;;;;;;7.07;5.75;;;;;;;27.88;99.95;98675.50;5058031;28;20216;-79
2023/08/21 08:59:56;;;;;;;7.80;6.40;;;;;;;27.78;96.63;98687.50;5058260;28;20232;-79
2023/08/21 09:02:25;;;;;;;6.68;5.95;;;;;;;27.84;94.75;98683.53;5058198;28;20205;-79
2023/08/21 09:04:51;;;;;;;6.90;5.93;;;;;;;28.05;95.95;98681.84;5058606;28;20205;-79
2023/08/21 09:07:19;;;;;;;6.30;5.70;;;;;;;28.45;92.55;98677.13;5057812;28;20205;-77
2023/08/21 09:09:49;;;;;;;7.68;5.95;;;;;;;28.20;94.41;98684.13;5058094;28;20236;-82
2023/08/21 09:12:16;;;;;;;6.95;6.22;;;;;;;28.57;92.11;98675.38;5059307;28;20715;-81
2023/08/21 09:14:43;;;;;;;6.80;6.20;;;;;;;28.40;91.61;98680.81;5059352;28;20207;-82
2023/08/21 09:17:10;;;;;;;7.72;6.07;;;;;;;28.25;90.04;98678.50;5058055;28;20694;-83
2023/08/21 09:19:37;;;;;;;13.27;7.03;;;;;;;28.20;91.98;98681.41;5056908;28;20684;-81
2023/08/21 09:22:10;;;;;;;7.60;6.10;;;;;;;28.60;91.53;98674.75;5056836;28;20683;-82
2023/08/21 09:24:39;;;;;;;7.28;6.55;;;;;;;28.63;89.90;98670.56;5059842;28;20205;-82
2023/08/21 09:27:05;;;;;;;6.90;6.18;;;;;;;28.45;91.37;98664.28;5059183;28;20209;-82
2023/08/21 09:29:40;;;;;;;7.30;6.35;;;;;;;28.69;90.45;98670.09;5055630;28;20221;-81
2023/08/21 09:32:06;;;;;;;9.27;6.40;;;;;;;29.08;87.81;98666.41;5037628;28;20213;-80
2023/08/21 09:34:37;;;;;;;7.22;6.38;;;;;;;28.55;90.36;98669.44;5038512;28;20212;-80
2023/08/21 09:37:09;;;;;;;9.63;8.68;;;;;;;29.08;91.99;98672.66;5052273;28;20200;-81
2023/08/21 09:39:36;;;;;;;14.98;7.22;;;;;;;29.18;91.50;98675.09;5058167;28;20269;-81
2023/08/21 09:42:07;;;;;;;10.50;6.28;;;;;;;29.50;87.67;98676.47;5057660;28;20221;-81
2023/08/21 09:44:43;;;;;;;10.25;6.03;;;;;;;29.84;87.38;98665.41;5058730;28;20208;-82
2023/08/21 09:47:10;;;;;;;9.20;5.45;;;;;;;29.66;79.56;98669.38;5059493;28;20251;-82
2023/08/21 09:49:39;;;;;;;6.60;5.13;;;;;;;29.03;81.69;98672.84;5057950;28;20229;-81
2023/08/21 09:52:07;;;;;;;5.78;5.18;;;;;;;29.41;81.70;98670.19;5057954;28;20225;-81
2023/08/21 09:54:34;;;;;;;6.45;5.43;;;;;;;29.40;82.49;98666.66;5058740;28;20211;-82
2023/08/21 09:57:03;;;;;;;7.15;5.97;;;;;;;29.55;80.70;98665.31;5046278;28;20208;-82
2023/08/21 09:59:30;;;;;;;7.00;5.32;;;;;;;29.52;78.33;98664.03;5040010;28;20222;-81
2023/08/21 10:02:00;;;;;;;6.15;5.32;;;;;;;29.86;77.92;98666.69;5058194;28;20194;-81
2023/08/21 10:04:30;;;;;;;5.68;5.00;;;;;;;29.64;78.27;98664.19;5059389;28;20217;-80
2023/08/21 10:06:57;;;;;;;5.57;4.45;;;;;;;30.02;76.00;98661.47;5052742;28;20224;-81
2023/08/21 10:09:25;;;;;;;6.45;4.90;;;;;;;30.32;73.92;98655.66;5037655;28;20226;-80
2023/08/21 10:11:54;;;;;;;5.93;4.45;;;;;;;30.33;75.91;98656.44;5036871;28;20271;-81
2023/08/21 10:14:24;;;;;;;6.07;4.65;;;;;;;30.36;74.09;98647.56;5037925;28;20228;-81
2023/08/21 10:16:52;;;;;;;6.68;4.43;;;;;;;30.55;71.14;98645.16;5050937;28;20259;-81
2023/08/21 10:19:19;;;;;;;6.03;4.50;;;;;;;30.31;74.15;98640.34;5056808;28;20225;-81
2023/08/21 10:21:48;;;;;;;5.97;4.63;;;;;;;30.29;77.06;98633.59;5056680;28;20205;-80
2023/08/21 10:24:27;;;;;;;7.68;5.22;;;;;;;30.29;76.73;98631.63;5049401;28;20198;-80
2023/08/21 10:26:53;;;;;;;7.88;4.55;;;;;;;30.42;74.04;98636.06;5034663;28;20653;-77
2023/08/21 10:29:20;;;;;;;7.35;4.88;;;;;;;30.13;75.03;98630.63;5034041;28;20233;-76
2023/08/21 10:31:46;;;;;;;5.45;4.80;;;;;;;30.13;74.14;98632.53;5036438;28;20233;-81
2023/08/21 10:34:14;;;;;;;8.30;4.80;;;;;;;30.33;73.74;98635.31;5055833;28;20665;-80
2023/08/21 10:36:44;;;;;;;4.90;4.50;;;;;;;30.17;73.99;98615.09;5058915;28;20205;-81
2023/08/21 10:39:18;;;;;;;8.05;5.35;;;;;;;29.89;74.73;98624.09;5057561;28;20224;-81
2023/08/21 10:41:59;;;;;;;9.20;5.10;;;;;;;30.50;74.25;98623.41;5041427;28;20216;-81
2023/08/21 10:44:35;;;;;;;6.10;4.80;;;;;;;30.04;74.81;98618.03;5056615;28;20211;-80
2023/08/21 10:47:14;;;;;;;7.15;4.50;;;;;;;30.04;74.08;98629.00;5057521;28;20207;-80
2023/08/21 10:49:41;;;;;;;6.00;4.63;;;;;;;30.14;73.17;98620.44;5055174;28;20264;-82
2023/08/21 10:52:10;;;;;;;5.82;5.22;;;;;;;29.97;73.05;98615.03;5055832;28;20224;-80
2023/08/21 10:54:51;;;;;;;5.82;5.10;;;;;;;30.63;73.27;98620.41;5057588;28;20209;-81
2023/08/21 10:57:18;;;;;;;7.50;4.85;;;;;;;30.88;73.10;98613.91;5056442;28;20631;-81
2023/08/21 10:59:51;;;;;;;6.75;4.55;;;;;;;30.72;71.13;98610.19;5057042;28;20225;-81
2023/08/21 11:02:18;;;;;;;6.78;4.88;;;;;;;31.13;71.06;98620.28;5056511;28;20205;-80
2023/08/21 11:04:45;;;;;;;5.22;4.63;;;;;;;31.18;71.17;98611.84;5056556;28;20208;-80
2023/08/21 11:07:12;;;;;;;7.07;4.75;;;;;;;31.25;69.68;98617.63;5057521;28;20564;-81
2023/08/21 11:09:39;;;;;;;6.70;4.82;;;;;;;31.22;72.37;98616.34;5037427;28;20221;-81
2023/08/21 11:12:14;;;;;;;5.03;4.50;;;;;;;31.22;71.55;98613.59;5036745;28;20222;-81
2023/08/21 11:14:40;;;;;;;6.28;4.55;;;;;;;31.41;68.13;98610.31;5037969;28;20206;-80
2023/08/21 11:17:08;;;;;;;6.03;4.88;;;;;;;31.47;66.46;98615.25;5036128;28;20214;-80
2023/08/21 11:19:35;;;;;;;5.88;5.10;;;;;;;31.19;69.08;98617.00;5054323;28;20531;-82
2023/08/21 11:22:04;;;;;;;10.10;5.65;;;;;;;30.91;69.18;98610.50;5054618;28;20657;-77
2023/08/21 11:24:51;;;;;;;9.23;4.47;;;;;;;30.86;70.62;98615.38;5053220;28;20290;-77
2023/08/21 11:27:19;;;;;;;6.25;4.70;;;;;;;31.01;70.17;98607.31;5052346;28;20193;-77